Time;durP1;ratioP1;P1;durP2;ratioP2;P2;SDS_P1;SDS_P2;PMS_P1;PMS_P2;Temp;Humidity;BMP_temperature;BMP_pressure;BME280_temperature;BME280_humidity;BME280_pressure;Samples;Min_cycle;Max_cycle;Signal;HPM_P1;HPM_P2
2022/07/15 00:01:04;;;;;;;;;;;;;;;16.86;49.13;101385.84;5062524;28;20336;-56
2022/07/15 00:03:29;;;;;;;;;;;;;;;16.88;49.20;101390.09;5063253;28;19925;-59
2022/07/15 00:05:55;;;;;;;;;;;;;;;16.88;49.14;101384.75;5061009;28;19934;-55
2022/07/15 00:08:20;;;;;;;;;;;;;;;16.87;49.29;101391.03;5068230;28;19924;-59
2022/07/15 00:10:45;;;;;;;;;;;;;;;16.88;49.20;101389.22;5060737;28;20403;-55
2022/07/15 00:13:11;;;;;;;;;;;;;;;16.85;49.15;101390.31;5061921;28;19923;-57
2022/07/15 00:15:36;;;;;;;;;;;;;;;16.77;49.40;101390.03;5067369;28;19921;-55
2022/07/15 00:18:03;;;;;;;;;;;;;;;16.71;49.63;101385.16;5071755;28;19924;-57
2022/07/15 00:20:33;;;;;;;;;;;;;;;16.68;49.66;101394.22;5064886;28;19919;-56
2022/07/15 00:22:59;;;;;;;;;;;;;;;16.63;49.99;101383.06;5067163;28;19927;-55
2022/07/15 00:25:24;;;;;;;;;;;;;;;16.64;49.84;101390.09;5076529;28;19920;-55
2022/07/15 00:27:53;;;;;;;;;;;;;;;16.65;49.88;101397.09;5067480;28;19931;-55
2022/07/15 00:30:20;;;;;;;;;;;;;;;16.67;49.88;101394.31;5069236;28;19916;-55
2022/07/15 00:32:46;;;;;;;;;;;;;;;16.65;49.84;101389.13;5065816;28;19924;-58
2022/07/15 00:35:11;;;;;;;;;;;;;;;16.65;49.87;101399.75;5069085;28;19923;-63
2022/07/15 00:37:37;;;;;;;;;;;;;;;16.59;50.02;101390.44;5064122;28;19916;-57
2022/07/15 00:40:02;;;;;;;;;;;;;;;16.57;50.20;101391.47;5064533;28;19936;-56
2022/07/15 00:42:46;;;;;;;;;;;;;;;16.52;50.26;101388.31;5072167;28;20003;-59
2022/07/15 00:45:13;;;;;;;;;;;;;;;16.50;50.32;101384.94;5059212;28;19924;-55
2022/07/15 00:47:39;;;;;;;;;;;;;;;16.48;50.19;101382.41;5074455;28;19916;-55
2022/07/15 00:50:05;;;;;;;;;;;;;;;16.45;50.43;101383.44;5072035;28;20314;-57
2022/07/15 00:52:30;;;;;;;;;;;;;;;16.51;50.31;101381.31;5060971;28;19917;-57
2022/07/15 00:54:58;;;;;;;;;;;;;;;16.52;50.32;101393.63;5070682;28;19924;-56
2022/07/15 00:57:24;;;;;;;;;;;;;;;16.48;50.09;101393.03;5069636;28;20276;-58
2022/07/15 00:59:50;;;;;;;;;;;;;;;16.39;50.62;101388.34;5071405;28;20453;-60
2022/07/15 01:02:15;;;;;;;;;;;;;;;16.37;50.57;101391.13;5075088;28;19916;-60
2022/07/15 01:04:41;;;;;;;;;;;;;;;16.39;50.64;101389.22;5065839;28;20082;-59
2022/07/15 01:07:06;;;;;;;;;;;;;;;16.38;50.56;101392.84;5059499;28;19920;-59
2022/07/15 01:09:32;;;;;;;;;;;;;;;16.36;50.47;101393.88;5065586;28;20400;-62
2022/07/15 01:11:58;;;;;;;;;;;;;;;16.30;50.58;101393.38;5063168;28;19932;-60
2022/07/15 01:14:23;;;;;;;;;;;;;;;16.25;50.62;101386.72;5065033;28;20786;-58
2022/07/15 01:16:49;;;;;;;;;;;;;;;16.18;50.95;101390.75;5064064;28;19946;-57
2022/07/15 01:19:14;;;;;;;;;;;;;;;16.12;50.95;101392.03;5064752;28;19921;-58
2022/07/15 01:21:39;;;;;;;;;;;;;;;16.05;51.07;101391.63;5068077;28;19927;-58
2022/07/15 01:24:05;;;;;;;;;;;;;;;16.04;51.21;101383.75;5057918;28;19925;-56
2022/07/15 01:26:30;;;;;;;;;;;;;;;16.02;51.15;101383.88;5069185;28;20610;-58
2022/07/15 01:28:55;;;;;;;;;;;;;;;16.00;51.17;101388.44;5063964;28;20111;-58
2022/07/15 01:31:21;;;;;;;;;;;;;;;16.00;51.21;101386.66;5066240;28;20364;-57
2022/07/15 01:33:46;;;;;;;;;;;;;;;15.98;51.24;101388.56;5062304;28;19920;-57
2022/07/15 01:36:12;;;;;;;;;;;;;;;15.99;51.26;101381.44;5064946;28;19925;-57
2022/07/15 01:38:37;;;;;;;;;;;;;;;15.99;51.19;101387.59;5061884;28;19924;-57
2022/07/15 01:41:03;;;;;;;;;;;;;;;15.99;51.09;101392.03;5063100;28;19951;-57
2022/07/15 01:43:28;;;;;;;;;;;;;;;15.97;51.39;101378.03;5066672;28;19936;-58
2022/07/15 01:45:53;;;;;;;;;;;;;;;15.95;51.33;101385.28;5066656;28;19977;-59
2022/07/15 01:51:03;;;;;;;;;;;;;;;15.94;51.45;101383.59;5067210;28;19963;-57
2022/07/15 01:53:28;;;;;;;;;;;;;;;15.91;51.36;101383.78;5067225;28;19951;-58
2022/07/15 01:55:54;;;;;;;;;;;;;;;15.89;51.46;101375.09;5064348;28;19955;-57
2022/07/15 01:58:19;;;;;;;;;;;;;;;15.85;51.55;101377.94;5067612;28;19943;-57
2022/07/15 02:00:45;;;;;;;;;;;;;;;15.85;51.58;101375.28;5059435;28;19917;-57
2022/07/15 02:03:10;;;;;;;;;;;;;;;15.87;51.51;101379.66;5063815;28;20318;-57
2022/07/15 02:05:35;;;;;;;;;;;;;;;15.85;51.65;101380.59;5065772;28;20388;-58
2022/07/15 02:08:02;;;;;;;;;;;;;;;15.84;51.51;101373.56;5068256;28;19923;-56
2022/07/15 02:10:39;;;;;;;;;;;;;;;15.86;51.60;101370.84;5067327;28;19923;-57
2022/07/15 02:13:11;;;;;;;;;;;;;;;15.81;51.60;101379.06;5065494;28;19929;-57
2022/07/15 02:15:37;;;;;;;;;;;;;;;15.78;51.65;101379.31;5064782;28;19916;-56
2022/07/15 02:18:03;;;;;;;;;;;;;;;15.70;51.76;101387.81;5068838;28;20824;-56
2022/07/15 02:20:28;;;;;;;;;;;;;;;15.65;52.00;101384.63;5055324;28;19920;-57
2022/07/15 02:22:55;;;;;;;;;;;;;;;15.64;51.81;101385.56;5059173;28;20007;-56
2022/07/15 02:25:20;;;;;;;;;;;;;;;15.66;51.76;101385.44;5063031;28;19965;-57
2022/07/15 02:27:46;;;;;;;;;;;;;;;15.65;51.79;101378.47;5060078;28;19920;-57
2022/07/15 02:30:12;;;;;;;;;;;;;;;15.64;51.95;101392.69;5064116;28;19955;-56
2022/07/15 02:32:37;;;;;;;;;;;;;;;15.64;51.97;101398.00;5069964;28;20287;-58
2022/07/15 02:35:03;;;;;;;;;;;;;;;15.63;51.92;101393.66;5068491;28;19916;-57
2022/07/15 02:37:28;;;;;;;;;;;;;;;15.62;52.01;101391.94;5065591;28;20457;-58
2022/07/15 02:39:53;;;;;;;;;;;;;;;15.60;51.99;101397.34;5062927;28;20031;-57
2022/07/15 02:42:19;;;;;;;;;;;;;;;15.58;51.92;101395.75;5065676;28;19927;-57
2022/07/15 02:44:44;;;;;;;;;;;;;;;15.55;52.07;101391.50;5070127;28;19935;-57
2022/07/15 02:47:10;;;;;;;;;;;;;;;15.52;52.07;101399.69;5060860;28;19967;-58
2022/07/15 02:49:35;;;;;;;;;;;;;;;15.48;52.02;101391.09;5061021;28;20323;-57
2022/07/15 02:52:01;;;;;;;;;;;;;;;15.46;52.36;101400.09;5067966;28;20047;-57
2022/07/15 02:54:27;;;;;;;;;;;;;;;15.44;52.43;101399.34;5070101;28;19932;-57
2022/07/15 02:56:52;;;;;;;;;;;;;;;15.38;52.33;101397.94;5070321;28;19971;-56
2022/07/15 02:59:17;;;;;;;;;;;;;;;15.35;52.52;101399.00;5074019;28;19960;-57
2022/07/15 03:01:42;;;;;;;;;;;;;;;15.33;52.51;101400.91;5056170;28;20334;-59
2022/07/15 03:04:08;;;;;;;;;;;;;;;15.29;52.63;101411.84;5059094;28;20288;-57
2022/07/15 03:06:33;;;;;;;;;;;;;;;15.28;52.51;101413.63;5063439;28;20370;-57
2022/07/15 03:08:59;;;;;;;;;;;;;;;15.26;52.75;101410.25;5064356;28;19932;-57
2022/07/15 03:11:24;;;;;;;;;;;;;;;15.21;52.76;101410.53;5062176;28;20016;-56
2022/07/15 03:13:50;;;;;;;;;;;;;;;15.21;52.68;101413.19;5072535;28;19920;-57
2022/07/15 03:16:15;;;;;;;;;;;;;;;15.18;52.87;101416.06;5061218;28;19921;-57
2022/07/15 03:18:40;;;;;;;;;;;;;;;15.16;52.96;101420.63;5064206;28;20138;-57
2022/07/15 03:21:06;;;;;;;;;;;;;;;15.15;52.86;101418.91;5063791;28;19948;-58
2022/07/15 03:23:31;;;;;;;;;;;;;;;15.11;53.08;101425.38;5064603;28;20307;-57
2022/07/15 03:25:56;;;;;;;;;;;;;;;15.10;53.23;101428.97;5062976;28;19994;-57
2022/07/15 03:28:21;;;;;;;;;;;;;;;15.12;53.12;101435.03;5066165;28;19925;-57
2022/07/15 03:30:47;;;;;;;;;;;;;;;15.12;53.14;101434.19;5066155;28;19924;-56
2022/07/15 03:33:12;;;;;;;;;;;;;;;15.11;53.10;101432.47;5068963;28;20015;-57
2022/07/15 03:35:37;;;;;;;;;;;;;;;15.08;53.15;101442.31;5066787;28;20303;-60
2022/07/15 03:38:03;;;;;;;;;;;;;;;15.05;53.36;101454.94;5069373;28;19920;-57
2022/07/15 03:40:28;;;;;;;;;;;;;;;15.00;53.54;101441.97;5062984;28;19956;-57
2022/07/15 03:42:53;;;;;;;;;;;;;;;15.01;53.58;101456.91;5067642;28;20290;-59
2022/07/15 03:45:19;;;;;;;;;;;;;;;15.01;53.55;101448.13;5066369;28;19928;-58
2022/07/15 03:47:44;;;;;;;;;;;;;;;15.03;53.69;101456.84;5066992;28;19924;-57
2022/07/15 03:50:09;;;;;;;;;;;;;;;15.02;53.75;101445.38;5067122;28;19983;-57
2022/07/15 03:52:35;;;;;;;;;;;;;;;15.02;53.70;101444.53;5073328;28;19971;-57
2022/07/15 03:55:00;;;;;;;;;;;;;;;15.04;53.78;101451.41;5071908;28;20009;-57
2022/07/15 03:57:26;;;;;;;;;;;;;;;15.07;53.51;101459.19;5067041;28;19916;-56
2022/07/15 03:59:52;;;;;;;;;;;;;;;15.10;53.54;101455.47;5067603;28;20014;-59
2022/07/15 04:02:17;;;;;;;;;;;;;;;15.11;53.59;101446.56;5062156;28;19937;-57
2022/07/15 04:04:42;;;;;;;;;;;;;;;15.15;53.48;101457.81;5060581;28;19924;-56
2022/07/15 04:07:07;;;;;;;;;;;;;;;15.14;53.56;101448.16;5072478;28;19921;-58
2022/07/15 04:09:33;;;;;;;;;;;;;;;15.13;53.50;101460.56;5074397;28;19921;-57
2022/07/15 04:11:58;;;;;;;;;;;;;;;15.13;53.67;101455.28;5059615;28;21790;-57
2022/07/15 04:14:23;;;;;;;;;;;;;;;15.12;53.56;101450.91;5072499;28;19927;-59
2022/07/15 04:16:49;;;;;;;;;;;;;;;15.13;53.71;101449.97;5063569;28;19920;-58
2022/07/15 04:19:14;;;;;;;;;;;;;;;15.15;53.61;101469.28;5062109;28;19920;-58
2022/07/15 04:21:39;;;;;;;;;;;;;;;15.15;53.79;101458.69;5070061;28;19928;-57
2022/07/15 04:24:05;;;;;;;;;;;;;;;15.16;53.59;101459.50;5071052;28;19920;-56
2022/07/15 04:26:30;;;;;;;;;;;;;;;15.19;53.76;101462.84;5068628;28;20370;-57
2022/07/15 04:28:56;;;;;;;;;;;;;;;15.23;53.65;101463.47;5068441;28;19927;-57
2022/07/15 04:31:21;;;;;;;;;;;;;;;15.27;53.46;101464.13;5067279;28;19920;-57
2022/07/15 04:33:47;;;;;;;;;;;;;;;15.27;53.43;101457.03;5067575;28;19970;-57
2022/07/15 04:36:12;;;;;;;;;;;;;;;15.26;53.51;101473.00;5064998;28;20337;-60
2022/07/15 04:38:37;;;;;;;;;;;;;;;15.21;53.69;101465.38;5065712;28;20414;-57
2022/07/15 04:41:03;;;;;;;;;;;;;;;15.20;53.66;101464.50;5065028;28;19920;-58
2022/07/15 04:43:28;;;;;;;;;;;;;;;15.19;53.72;101468.13;5072481;28;19925;-57
2022/07/15 04:45:53;;;;;;;;;;;;;;;15.23;53.84;101474.06;5065636;28;19935;-58
2022/07/15 04:51:03;;;;;;;;;;;;;;;15.26;53.78;101462.41;5069434;28;19932;-57
2022/07/15 04:53:28;;;;;;;;;;;;;;;15.22;53.93;101470.56;5070472;28;19916;-58
2022/07/15 04:55:53;;;;;;;;;;;;;;;15.25;53.97;101469.53;5061983;28;19951;-59
2022/07/15 04:58:19;;;;;;;;;;;;;;;15.29;53.89;101472.81;5070208;28;20009;-58
2022/07/15 05:00:45;;;;;;;;;;;;;;;15.31;53.68;101481.53;5067305;28;19931;-56
2022/07/15 05:03:10;;;;;;;;;;;;;;;15.32;53.88;101477.94;5065529;28;19924;-56
2022/07/15 05:05:36;;;;;;;;;;;;;;;15.35;53.82;101470.59;5061996;28;20446;-57
2022/07/15 05:08:01;;;;;;;;;;;;;;;15.36;53.89;101480.25;5069200;28;20031;-57
2022/07/15 05:10:27;;;;;;;;;;;;;;;15.38;53.89;101480.16;5067601;28;20003;-57
2022/07/15 05:12:52;;;;;;;;;;;;;;;15.35;53.84;101483.88;5061626;28;19920;-57
2022/07/15 05:15:17;;;;;;;;;;;;;;;15.34;54.06;101481.31;5071782;28;19927;-58
2022/07/15 05:17:43;;;;;;;;;;;;;;;15.34;53.85;101491.94;5066591;28;19928;-57
2022/07/15 05:20:08;;;;;;;;;;;;;;;15.33;54.04;101490.22;5065624;28;19920;-57
2022/07/15 05:22:33;;;;;;;;;;;;;;;15.34;54.05;101482.16;5069401;28;20036;-58
2022/07/15 05:24:59;;;;;;;;;;;;;;;15.34;54.21;101491.94;5063972;28;19966;-57
2022/07/15 05:27:24;;;;;;;;;;;;;;;15.35;54.25;101488.34;5063276;28;19924;-56
2022/07/15 05:29:49;;;;;;;;;;;;;;;15.38;54.33;101483.66;5061019;28;20006;-57
2022/07/15 05:32:15;;;;;;;;;;;;;;;15.43;54.01;101503.75;5062681;28;19935;-57
2022/07/15 05:34:40;;;;;;;;;;;;;;;15.40;54.44;101496.81;5071383;28;19928;-56
2022/07/15 05:37:06;;;;;;;;;;;;;;;15.35;54.53;101488.34;5060834;28;20704;-57
2022/07/15 05:39:31;;;;;;;;;;;;;;;15.34;54.40;101497.25;5072860;28;20381;-57
2022/07/15 05:41:58;;;;;;;;;;;;;;;15.34;54.46;101498.06;5066133;28;19928;-57
2022/07/15 05:44:23;;;;;;;;;;;;;;;15.37;54.50;101491.72;5063463;28;20383;-56
2022/07/15 05:46:50;;;;;;;;;;;;;;;15.39;54.47;101498.63;5060666;28;20014;-57
2022/07/15 05:49:15;;;;;;;;;;;;;;;15.38;54.54;101494.28;5062991;28;19921;-59
2022/07/15 05:51:53;;;;;;;;;;;;;;;15.40;54.33;101496.81;5058590;28;19923;-57
2022/07/15 05:54:18;;;;;;;;;;;;;;;15.41;54.58;101501.16;5064819;28;19932;-59
2022/07/15 05:56:44;;;;;;;;;;;;;;;15.43;54.46;101506.38;5058405;28;20387;-59
2022/07/15 05:59:09;;;;;;;;;;;;;;;15.45;54.36;101515.94;5062634;28;20018;-57
2022/07/15 06:01:34;;;;;;;;;;;;;;;15.45;54.45;101509.75;5061562;28;19928;-56
2022/07/15 06:03:59;;;;;;;;;;;;;;;15.51;54.40;101510.22;5066999;28;20455;-57
2022/07/15 06:06:25;;;;;;;;;;;;;;;15.57;54.49;101502.81;5062139;28;20319;-57
2022/07/15 06:08:50;;;;;;;;;;;;;;;15.64;54.30;101520.03;5051127;28;20057;-56
2022/07/15 06:11:15;;;;;;;;;;;;;;;15.66;54.58;101507.47;5059877;28;19921;-57
2022/07/15 06:13:41;;;;;;;;;;;;;;;15.70;54.48;101524.91;5067098;28;19928;-55
2022/07/15 06:16:06;;;;;;;;;;;;;;;15.73;54.57;101516.75;5068896;28;20015;-57
2022/07/15 06:18:32;;;;;;;;;;;;;;;15.79;54.44;101524.31;5064515;28;19920;-60
2022/07/15 06:20:57;;;;;;;;;;;;;;;15.88;54.24;101519.34;5067509;28;19936;-57
2022/07/15 06:23:22;;;;;;;;;;;;;;;15.96;54.02;101527.63;5062811;28;20296;-57
2022/07/15 06:25:48;;;;;;;;;;;;;;;16.01;53.84;101530.81;5067741;28;19967;-56
2022/07/15 06:28:13;;;;;;;;;;;;;;;16.10;53.74;101526.69;5059523;28;19943;-56
2022/07/15 06:30:39;;;;;;;;;;;;;;;16.14;53.59;101531.66;5064013;28;19961;-56
2022/07/15 06:33:04;;;;;;;;;;;;;;;16.19;53.51;101530.50;5069075;28;20376;-57
2022/07/15 06:35:30;;;;;;;;;;;;;;;16.24;53.34;101539.03;5063517;28;20018;-59
2022/07/15 06:37:55;;;;;;;;;;;;;;;16.29;53.27;101542.19;5064856;28;19921;-57
2022/07/15 06:40:20;;;;;;;;;;;;;;;16.36;53.17;101551.44;5060163;28;19917;-58
2022/07/15 06:42:46;;;;;;;;;;;;;;;16.40;53.03;101539.66;5062659;28;22641;-60
2022/07/15 06:45:12;;;;;;;;;;;;;;;16.41;52.92;101549.28;5062682;28;19929;-58
2022/07/15 06:47:41;;;;;;;;;;;;;;;16.43;52.95;101552.69;5070854;28;19923;-56
2022/07/15 06:50:07;;;;;;;;;;;;;;;16.50;52.90;101554.94;5068446;28;20019;-60
2022/07/15 06:52:32;;;;;;;;;;;;;;;16.57;52.77;101550.88;5065777;28;20031;-56
2022/07/15 06:54:57;;;;;;;;;;;;;;;16.62;52.67;101559.38;5065183;28;20000;-60
2022/07/15 06:57:22;;;;;;;;;;;;;;;16.66;52.49;101575.94;5067935;28;19920;-59
2022/07/15 06:59:48;;;;;;;;;;;;;;;16.65;52.32;101559.16;5063427;28;19928;-58
2022/07/15 07:02:13;;;;;;;;;;;;;;;16.67;52.33;101556.41;5068941;28;20065;-56
2022/07/15 07:04:38;;;;;;;;;;;;;;;16.67;52.22;101570.53;5064484;28;20372;-57
2022/07/15 07:07:04;;;;;;;;;;;;;;;16.69;52.18;101568.63;5065697;28;20295;-58
2022/07/15 07:09:29;;;;;;;;;;;;;;;16.69;52.12;101560.66;5069332;28;20058;-57
2022/07/15 07:11:55;;;;;;;;;;;;;;;16.71;52.23;101568.50;5064484;28;19928;-56
2022/07/15 07:14:20;;;;;;;;;;;;;;;16.75;52.12;101581.47;5069557;28;19924;-58
2022/07/15 07:16:46;;;;;;;;;;;;;;;16.77;51.93;101571.59;5064024;28;22427;-56
2022/07/15 07:19:12;;;;;;;;;;;;;;;16.75;51.67;101560.22;5061962;28;19920;-58
2022/07/15 07:21:38;;;;;;;;;;;;;;;16.75;51.75;101570.00;5065630;28;20038;-56
2022/07/15 07:24:04;;;;;;;;;;;;;;;16.78;51.47;101567.13;5077260;28;20375;-59
2022/07/15 07:26:29;;;;;;;;;;;;;;;16.79;51.40;101552.03;5071450;28;19959;-57
2022/07/15 07:28:55;;;;;;;;;;;;;;;16.84;51.44;101564.03;5073607;28;19925;-60
2022/07/15 07:31:25;;;;;;;;;;;;;;;16.94;51.21;101558.91;5074598;28;20302;-57
2022/07/15 07:33:51;;;;;;;;;;;;;;;17.00;50.87;101555.84;5069444;28;19929;-61
2022/07/15 07:36:16;;;;;;;;;;;;;;;17.04;50.68;101559.13;5067975;28;19927;-56
2022/07/15 07:38:41;;;;;;;;;;;;;;;17.12;50.49;101569.19;5068937;28;20437;-58
2022/07/15 07:41:06;;;;;;;;;;;;;;;17.16;50.28;101565.38;5072406;28;19924;-57
2022/07/15 07:43:32;;;;;;;;;;;;;;;17.19;49.90;101578.41;5071745;28;20035;-59
2022/07/15 07:45:58;;;;;;;;;;;;;;;17.18;49.66;101563.41;5071869;28;19978;-57
2022/07/15 07:48:23;;;;;;;;;;;;;;;17.18;49.37;101568.75;5072393;28;19921;-60
2022/07/15 07:50:48;;;;;;;;;;;;;;;17.17;49.27;101590.97;5074233;28;19927;-57
2022/07/15 07:53:14;;;;;;;;;;;;;;;17.19;49.14;101558.00;5075342;28;19927;-58
2022/07/15 07:55:39;;;;;;;;;;;;;;;17.25;48.91;101570.00;5072714;28;20363;-56
2022/07/15 07:58:05;;;;;;;;;;;;;;;17.32;48.78;101560.59;5068498;28;19920;-60
2022/07/15 08:00:31;;;;;;;;;;;;;;;17.38;48.58;101567.31;5069131;28;19931;-60
2022/07/15 08:02:57;;;;;;;;;;;;;;;17.43;48.49;101558.97;5074997;28;19921;-57
2022/07/15 08:05:22;;;;;;;;;;;;;;;17.45;48.16;101573.03;5061356;28;20025;-57
2022/07/15 08:07:48;;;;;;;;;;;;;;;17.47;47.74;101555.13;5060747;28;20003;-58
2022/07/15 08:10:14;;;;;;;;;;;;;;;17.46;47.73;101588.03;5065627;28;21001;-58
2022/07/15 08:12:39;;;;;;;;;;;;;;;17.44;47.42;101574.81;5066440;28;19943;-62
2022/07/15 08:15:06;;;;;;;;;;;;;;;17.46;47.47;101569.41;5064852;28;19924;-57
2022/07/15 08:17:31;;;;;;;;;;;;;;;17.49;47.02;101569.16;5063343;28;19917;-56
2022/07/15 08:19:56;;;;;;;;;;;;;;;17.53;47.21;101575.94;5067357;28;20256;-61
2022/07/15 08:22:22;;;;;;;;;;;;;;;17.60;47.24;101569.22;5070805;28;20307;-59
2022/07/15 08:24:49;;;;;;;;;;;;;;;17.63;46.98;101566.31;5067555;28;20444;-57
2022/07/15 08:27:15;;;;;;;;;;;;;;;17.71;46.87;101567.56;5071057;28;20303;-57
2022/07/15 08:29:40;;;;;;;;;;;;;;;17.76;46.71;101578.72;5064861;28;19920;-56
2022/07/15 08:32:05;;;;;;;;;;;;;;;17.81;46.60;101576.53;5070264;28;19947;-57
2022/07/15 08:34:31;;;;;;;;;;;;;;;17.88;46.61;101575.13;5060924;28;19927;-59
2022/07/15 08:36:56;;;;;;;;;;;;;;;17.96;46.58;101585.19;5057947;28;19935;-57
2022/07/15 08:39:21;;;;;;;;;;;;;;;17.98;46.02;101586.81;5063315;28;19925;-57
2022/07/15 08:41:46;;;;;;;;;;;;;;;17.97;45.97;101579.78;5068142;28;19920;-56
2022/07/15 08:44:12;;;;;;;;;;;;;;;18.00;45.84;101586.66;5064847;28;20600;-55
2022/07/15 08:46:40;;;;;;;;;;;;;;;18.02;45.87;101587.41;5063469;28;19921;-60
2022/07/15 08:49:08;;;;;;;;;;;;;;;18.02;45.64;101578.59;5063742;28;19975;-60
2022/07/15 08:51:38;;;;;;;;;;;;;;;18.03;45.63;101573.13;5068929;28;19939;-56
2022/07/15 08:54:03;;;;;;;;;;;;;;;18.06;45.24;101588.03;5068523;28;19916;-62
2022/07/15 08:56:28;;;;;;;;;;;;;;;18.07;45.24;101579.09;5061523;28;19917;-60
2022/07/15 08:58:55;;;;;;;;;;;;;;;18.10;45.24;101570.84;5061086;28;19927;-61
2022/07/15 09:01:20;;;;;;;;;;;;;;;18.14;45.04;101596.28;5059723;28;20396;-58
2022/07/15 09:03:45;;;;;;;;;;;;;;;18.15;44.67;101582.00;5062674;28;19982;-60
2022/07/15 09:06:29;;;;;;;;;;;;;;;18.14;44.54;101598.94;5072537;28;19924;-60
2022/07/15 09:08:54;;;;;;;;;;;;;;;18.16;44.30;101588.16;5068290;28;19927;-61
2022/07/15 09:11:26;;;;;;;;;;;;;;;18.17;44.29;101590.72;5070851;28;19916;-61
2022/07/15 09:13:52;;;;;;;;;;;;;;;18.22;44.05;101598.34;5070755;28;20401;-59
2022/07/15 09:16:21;;;;;;;;;;;;;;;18.25;43.59;101592.81;5065324;28;19928;-59
2022/07/15 09:18:48;;;;;;;;;;;;;;;18.26;43.72;101587.34;5072563;28;19928;-59
2022/07/15 09:21:18;;;;;;;;;;;;;;;18.33;43.90;101589.53;5074756;28;19924;-58
2022/07/15 09:23:44;;;;;;;;;;;;;;;18.37;43.43;101602.50;5070675;28;19920;-57
2022/07/15 09:26:26;;;;;;;;;;;;;;;18.41;43.41;101590.66;5070340;28;20307;-57
2022/07/15 09:28:51;;;;;;;;;;;;;;;18.45;42.99;101615.22;5072989;28;19975;-56
2022/07/15 09:34:30;;;;;;;;;;;;;;;18.52;41.98;101589.81;5066043;28;19923;-57
2022/07/15 09:36:57;;;;;;;;;;;;;;;18.61;41.83;101588.22;5070361;28;19920;-59
2022/07/15 09:39:23;;;;;;;;;;;;;;;18.68;42.11;101588.63;5071408;28;19948;-57
2022/07/15 09:41:49;;;;;;;;;;;;;;;18.74;41.59;101582.78;5067619;28;19916;-56
2022/07/15 09:44:15;;;;;;;;;;;;;;;18.79;41.63;101591.28;5070889;28;19928;-60
2022/07/15 09:46:44;;;;;;;;;;;;;;;18.81;41.58;101593.81;5069075;28;20003;-59
2022/07/15 09:49:13;;;;;;;;;;;;;;;18.85;41.20;101595.25;5075698;28;19931;-59
2022/07/15 09:51:47;;;;;;;;;;;;;;;18.87;41.06;101606.66;5076426;28;20379;-58
2022/07/15 09:54:12;;;;;;;;;;;;;;;18.85;41.23;101600.59;5072857;28;19917;-59
2022/07/15 09:56:38;;;;;;;;;;;;;;;18.82;41.61;101592.84;5073196;28;19924;-57
2022/07/15 09:59:03;;;;;;;;;;;;;;;18.81;41.09;101593.81;5071468;28;19924;-60
2022/07/15 10:01:29;;;;;;;;;;;;;;;18.82;40.94;101600.84;5072658;28;19928;-59
2022/07/15 10:03:55;;;;;;;;;;;;;;;18.83;40.99;101587.38;5067770;28;19917;-56
2022/07/15 10:06:21;;;;;;;;;;;;;;;18.87;40.44;101601.34;5070949;28;21034;-56
2022/07/15 10:08:47;;;;;;;;;;;;;;;18.92;40.31;101590.28;5072045;28;20380;-61
2022/07/15 10:11:13;;;;;;;;;;;;;;;18.98;40.01;101600.50;5071009;28;19916;-57
2022/07/15 10:13:53;;;;;;;;;;;;;;;18.98;39.69;101601.34;5073939;28;19916;-59
2022/07/15 10:16:22;;;;;;;;;;;;;;;18.97;39.72;101609.47;5068004;28;19978;-57
2022/07/15 10:18:53;;;;;;;;;;;;;;;18.93;39.80;101608.00;5064230;28;19916;-61
2022/07/15 10:21:28;;;;;;;;;;;;;;;18.89;40.24;101597.56;5051984;28;19935;-58
2022/07/15 10:23:57;;;;;;;;;;;;;;;18.93;40.33;101606.16;5066155;28;19928;-56
2022/07/15 10:26:22;;;;;;;;;;;;;;;18.99;40.23;101612.84;5065431;28;19924;-59
2022/07/15 10:29:04;;;;;;;;;;;;;;;19.07;40.39;101605.09;5059253;28;19924;-60
2022/07/15 10:31:30;;;;;;;;;;;;;;;19.07;40.15;101613.09;5055061;28;19920;-56
2022/07/15 10:34:04;;;;;;;;;;;;;;;19.10;40.00;101614.66;5066200;28;19981;-56
2022/07/15 10:36:39;;;;;;;;;;;;;;;19.05;39.59;101612.38;5061656;28;19916;-57
2022/07/15 10:39:05;;;;;;;;;;;;;;;19.01;39.84;101617.09;5071175;28;19920;-59
2022/07/15 10:41:49;;;;;;;;;;;;;;;19.02;39.81;101616.13;5066365;28;19924;-59
2022/07/15 10:44:15;;;;;;;;;;;;;;;19.06;39.71;101602.56;5069887;28;19951;-60
2022/07/15 10:46:40;;;;;;;;;;;;;;;19.15;39.66;101591.13;5070758;28;19921;-55
2022/07/15 10:49:05;;;;;;;;;;;;;;;19.25;39.40;101607.25;5070894;28;20433;-56
2022/07/15 10:51:51;;;;;;;;;;;;;;;19.32;38.92;101592.44;5068414;28;20371;-60
2022/07/15 10:54:16;;;;;;;;;;;;;;;19.43;38.20;101603.09;5070374;28;19931;-56
2022/07/15 10:56:42;;;;;;;;;;;;;;;19.47;37.75;101612.53;5075378;28;19917;-58
2022/07/15 10:59:11;;;;;;;;;;;;;;;19.47;38.11;101603.69;5069371;28;20329;-58
2022/07/15 11:01:44;;;;;;;;;;;;;;;19.52;38.28;101593.44;5075175;28;20334;-58
2022/07/15 11:04:18;;;;;;;;;;;;;;;19.60;37.95;101614.16;5073565;28;19982;-58
2022/07/15 11:07:11;;;;;;;;;;;;;;;19.63;37.99;101600.56;5066880;28;19963;-58
2022/07/15 11:09:45;;;;;;;;;;;;;;;19.64;38.15;101607.63;5067074;28;19995;-57
2022/07/15 11:12:11;;;;;;;;;;;;;;;19.64;38.13;101612.94;5068405;28;19927;-58
2022/07/15 11:14:44;;;;;;;;;;;;;;;19.66;38.20;101616.34;5067814;28;19924;-58
2022/07/15 11:17:10;;;;;;;;;;;;;;;19.66;38.55;101600.34;5068344;28;19924;-58
2022/07/15 11:19:36;;;;;;;;;;;;;;;19.72;38.48;101613.19;5072472;28;21364;-58
2022/07/15 11:22:01;;;;;;;;;;;;;;;19.76;38.31;101605.75;5070737;28;20019;-60
2022/07/15 11:24:27;;;;;;;;;;;;;;;19.80;38.54;101602.69;5068035;28;19932;-58
2022/07/15 11:26:53;;;;;;;;;;;;;;;19.85;38.25;101598.81;5072280;28;19917;-59
2022/07/15 11:29:18;;;;;;;;;;;;;;;19.91;38.02;101598.28;5067260;28;19969;-57
2022/07/15 11:31:43;;;;;;;;;;;;;;;20.00;37.90;101616.25;5069647;28;20536;-57
2022/07/15 11:34:09;;;;;;;;;;;;;;;20.08;37.41;101600.41;5066675;28;19931;-59
2022/07/15 11:36:34;;;;;;;;;;;;;;;20.13;37.18;101610.69;5072889;28;19924;-60
2022/07/15 11:39:00;;;;;;;;;;;;;;;20.12;37.01;101609.00;5065351;28;19928;-61
2022/07/15 11:46:54;;;;;;;;;;;;;;;19.94;36.60;101609.59;5069588;28;20399;-59
2022/07/15 11:49:30;;;;;;;;;;;;;;;19.91;36.63;101604.50;5068626;28;19951;-58
2022/07/15 11:51:56;;;;;;;;;;;;;;;19.97;37.05;101607.63;5066825;28;19929;-58
2022/07/15 11:54:22;;;;;;;;;;;;;;;20.05;37.02;101603.31;5061424;28;20002;-61
2022/07/15 11:56:54;;;;;;;;;;;;;;;20.12;36.86;101598.31;5067748;28;20314;-57
2022/07/15 11:59:19;;;;;;;;;;;;;;;20.17;36.51;101598.78;5064163;28;20615;-59
2022/07/15 12:01:45;;;;;;;;;;;;;;;20.16;35.92;101596.25;5069089;28;19928;-60
2022/07/15 12:04:10;;;;;;;;;;;;;;;20.14;36.25;101608.88;5069732;28;20363;-59
2022/07/15 12:06:36;;;;;;;;;;;;;;;20.12;36.45;101603.66;5071419;28;19932;-61
2022/07/15 12:09:03;;;;;;;;;;;;;;;20.20;36.47;101600.31;5072419;28;19956;-59
2022/07/15 12:11:30;;;;;;;;;;;;;;;20.23;36.11;101603.59;5071033;28;19916;-59
2022/07/15 12:13:57;;;;;;;;;;;;;;;20.28;35.91;101605.88;5058669;28;20376;-58
2022/07/15 12:16:27;;;;;;;;;;;;;;;20.31;35.93;101610.97;5064170;28;19927;-58
2022/07/15 12:18:54;;;;;;;;;;;;;;;20.33;35.73;101614.34;5066206;28;19921;-56
2022/07/15 12:21:19;;;;;;;;;;;;;;;20.35;36.13;101627.56;5069429;28;19923;-59
2022/07/15 12:24:05;;;;;;;;;;;;;;;20.32;36.06;101612.66;5067338;28;19924;-57
2022/07/15 12:26:31;;;;;;;;;;;;;;;20.37;36.11;101620.28;5072974;28;20414;-57
2022/07/15 12:28:57;;;;;;;;;;;;;;;20.44;35.91;101615.25;5072606;28;20027;-59
2022/07/15 12:31:26;;;;;;;;;;;;;;;20.49;35.84;101611.19;5070731;28;19943;-60
2022/07/15 12:33:52;;;;;;;;;;;;;;;20.55;35.52;101617.84;5071533;28;19927;-58
2022/07/15 12:36:21;;;;;;;;;;;;;;;20.58;35.50;101612.22;5072210;28;19921;-57
2022/07/15 12:39:01;;;;;;;;;;;;;;;20.59;35.31;101613.91;5076495;28;19920;-60
2022/07/15 12:41:27;;;;;;;;;;;;;;;20.66;35.53;101617.75;5068481;28;19920;-60
2022/07/15 12:43:54;;;;;;;;;;;;;;;20.70;35.61;101616.50;5070354;28;19929;-60
2022/07/15 12:46:20;;;;;;;;;;;;;;;20.76;35.31;101614.31;5076274;28;19920;-62